createdAt,value
2023-05-16T00:01:41.951Z,5.13
2023-05-16T00:06:45.941Z,5.28
2023-05-16T00:11:51.804Z,6.95
2023-05-16T00:16:57.772Z,5.93
2023-05-16T00:22:01.902Z,8.27
2023-05-16T00:27:08.042Z,6.28
2023-05-16T00:32:12.077Z,6.78
2023-05-16T00:37:17.303Z,10.03
2023-05-16T00:42:22.677Z,16.30
2023-05-16T00:47:26.715Z,6.45
2023-05-16T00:52:31.031Z,9.32
2023-05-16T00:57:36.314Z,5.75
2023-05-16T01:02:40.355Z,5.75
2023-05-16T01:07:44.650Z,6.22
2023-05-16T01:13:02.477Z,7.60
2023-05-16T01:18:13.362Z,8.85
2023-05-16T01:23:35.423Z,6.20
2023-05-16T01:28:42.450Z,7.97
2023-05-16T01:33:46.756Z,10.18
2023-05-16T01:39:02.736Z,7.10
2023-05-16T01:44:17.985Z,7.13
2023-05-16T01:49:31.163Z,5.23
2023-05-16T01:54:39.539Z,7.00
2023-05-16T01:59:46.834Z,10.32
2023-05-16T02:04:51.703Z,5.93
2023-05-16T02:09:55.804Z,7.20
2023-05-16T02:15:01.234Z,9.27
2023-05-16T02:20:07.248Z,9.63
2023-05-16T02:25:11.588Z,6.28
2023-05-16T02:30:17.965Z,7.13
2023-05-16T02:35:22.928Z,9.48
2023-05-16T02:40:26.842Z,8.88
2023-05-16T02:45:32.667Z,7.82
2023-05-16T02:50:37.607Z,10.02
2023-05-16T02:55:42.097Z,11.33
2023-05-16T03:00:47.707Z,11.15
2023-05-16T03:11:00.928Z,11.02
2023-05-16T03:16:10.710Z,13.27
2023-05-16T03:21:17.893Z,8.95
2023-05-16T03:26:25.055Z,10.88
2023-05-16T03:31:36.554Z,15.80
2023-05-16T03:36:44.919Z,11.52
2023-05-16T03:41:52.629Z,11.15
2023-05-16T03:47:00.256Z,8.70
2023-05-16T03:52:06.729Z,12.27
2023-05-16T04:02:20.502Z,11.20
2023-05-16T04:07:27.855Z,10.90
2023-05-16T04:12:34.711Z,11.80
2023-05-16T04:17:43.148Z,11.43
2023-05-16T04:22:50.579Z,11.50
2023-05-16T04:27:58.017Z,11.15
2023-05-16T04:33:06.847Z,8.63
2023-05-16T04:38:13.446Z,8.23
2023-05-16T04:48:28.432Z,11.77
2023-05-16T04:53:36.235Z,11.88
2023-05-16T04:58:43.693Z,9.98
2023-05-16T05:03:49.877Z,12.57
2023-05-16T05:08:56.599Z,10.23
2023-05-16T05:14:04.239Z,7.22
2023-05-16T05:19:11.463Z,12.32
2023-05-16T05:24:17.697Z,4.30
2023-05-16T05:29:25.003Z,5.13
2023-05-16T05:34:33.827Z,8.23
2023-05-16T05:39:40.785Z,6.13
2023-05-16T05:44:47.634Z,9.43
2023-05-16T05:49:56.181Z,7.18
2023-05-16T05:55:03.519Z,9.55
2023-05-16T06:00:12.194Z,7.90
2023-05-16T06:05:19.234Z,6.03
2023-05-16T06:10:24.331Z,4.18
2023-05-16T06:20:37.015Z,6.20
2023-05-16T06:25:43.354Z,12.05
2023-05-16T06:30:52.457Z,7.20
2023-05-16T06:36:00.656Z,12.48
2023-05-16T06:41:07.916Z,3.20
2023-05-16T06:46:15.544Z,6.00
2023-05-16T06:51:23.641Z,4.72
2023-05-16T06:56:32.098Z,5.07
2023-05-16T07:01:39.713Z,7.75
2023-05-16T07:06:48.494Z,4.63
2023-05-16T07:11:54.503Z,6.32
2023-05-16T07:17:01.402Z,5.07
2023-05-16T07:22:09.443Z,2.80
2023-05-16T07:27:16.418Z,4.13
2023-05-16T07:32:22.580Z,4.40
2023-05-16T07:37:29.900Z,2.50
2023-05-16T07:42:37.424Z,4.70
2023-05-16T07:47:44.813Z,4.28
2023-05-16T07:52:53.826Z,8.88
2023-05-16T07:58:01.464Z,6.47
2023-05-16T08:03:09.041Z,6.10
2023-05-16T08:08:19.126Z,7.75
2023-05-16T08:13:29.685Z,2.72
2023-05-16T08:18:35.781Z,4.57
2023-05-16T08:28:50.778Z,6.03
2023-05-16T08:33:55.785Z,4.88
2023-05-16T08:39:03.915Z,5.33
2023-05-16T08:44:13.778Z,6.25
2023-05-16T08:49:21.419Z,7.03
2023-05-16T08:54:30.451Z,2.67
2023-05-16T08:59:38.138Z,5.97
2023-05-16T09:04:47.572Z,3.33
2023-05-16T09:09:55.269Z,5.07
2023-05-16T09:15:04.401Z,6.13
2023-05-16T09:20:12.411Z,3.88
2023-05-16T09:25:30.118Z,3.03
2023-05-16T09:30:39.964Z,8.48
2023-05-16T09:35:47.245Z,6.53
2023-05-16T09:40:55.947Z,4.13
2023-05-16T09:46:04.156Z,3.75
2023-05-16T09:51:11.041Z,9.50
2023-05-16T09:56:19.948Z,3.25
2023-05-16T10:01:29.115Z,5.70
2023-05-16T10:06:34.618Z,6.25
2023-05-16T10:11:41.569Z,5.15
2023-05-16T10:16:50.492Z,6.03
2023-05-16T10:22:02.750Z,3.40
2023-05-16T10:27:12.886Z,4.97
2023-05-16T10:32:21.300Z,3.63
2023-05-16T10:37:30.083Z,4.88
2023-05-16T10:42:38.465Z,4.80
2023-05-16T10:47:53.844Z,3.00
2023-05-16T10:53:13.206Z,3.97
2023-05-16T10:58:41.574Z,4.40
2023-05-16T11:04:10.507Z,4.45
2023-05-16T11:09:27.503Z,3.90
2023-05-16T11:14:44.321Z,3.92
2023-05-16T11:19:51.135Z,3.25
2023-05-16T11:25:03.461Z,8.13
2023-05-16T11:30:18.186Z,4.95
2023-05-16T11:35:24.367Z,7.13
2023-05-16T11:40:29.625Z,4.95
2023-05-16T11:45:37.216Z,4.15
2023-05-16T11:50:42.809Z,8.68
2023-05-16T12:01:02.315Z,3.08
2023-05-16T12:06:07.313Z,3.85
2023-05-16T12:11:12.541Z,4.00
2023-05-16T12:16:18.635Z,4.88
2023-05-16T12:21:23.612Z,6.85
2023-05-16T12:26:30.972Z,2.95
2023-05-16T12:31:42.069Z,5.50
2023-05-16T12:36:54.067Z,4.22
2023-05-16T12:42:06.663Z,2.95
2023-05-16T12:47:16.397Z,4.72
2023-05-16T12:52:21.915Z,3.13
2023-05-16T12:57:26.454Z,4.88
2023-05-16T13:02:33.607Z,15.77
2023-05-16T13:07:40.648Z,4.53
2023-05-16T13:12:46.249Z,6.78
2023-05-16T13:17:53.341Z,4.68
2023-05-16T13:23:00.065Z,7.03
2023-05-16T13:28:06.970Z,4.32
2023-05-16T13:33:14.175Z,5.43
2023-05-16T13:38:19.297Z,7.43
2023-05-16T13:43:23.620Z,5.97
2023-05-16T13:48:30.839Z,3.20
2023-05-16T13:53:39.755Z,3.42
2023-05-16T14:03:59.442Z,4.85
2023-05-16T14:09:04.617Z,4.15
2023-05-16T14:14:08.911Z,5.65
2023-05-16T14:19:17.281Z,3.88
2023-05-16T14:24:22.650Z,9.18
2023-05-16T14:29:27.046Z,6.80
2023-05-16T14:34:33.719Z,3.43
2023-05-16T14:39:37.999Z,4.32
2023-05-16T14:44:42.087Z,11.52
2023-05-16T14:49:47.593Z,6.00
2023-05-16T14:59:55.599Z,8.43
2023-05-16T15:05:01.365Z,6.90
2023-05-16T15:10:07.018Z,8.65
2023-05-16T15:15:14.187Z,4.20
2023-05-16T15:20:23.455Z,4.68
2023-05-16T15:25:28.053Z,6.60
2023-05-16T15:30:33.573Z,5.80
2023-05-16T15:35:40.895Z,8.65
2023-05-16T15:40:47.068Z,10.75
2023-05-16T15:45:53.699Z,6.60
2023-05-16T15:50:59.860Z,8.48
2023-05-16T15:56:05.069Z,6.13
2023-05-16T16:01:09.493Z,6.10
2023-05-16T16:06:15.239Z,8.55
2023-05-16T16:11:21.556Z,9.10
2023-05-16T16:16:25.890Z,8.50
2023-05-16T16:21:33.510Z,11.23
2023-05-16T16:26:38.421Z,9.25
2023-05-16T16:31:42.539Z,10.90
2023-05-16T16:36:48.106Z,13.07
2023-05-16T16:41:54.064Z,11.02
2023-05-16T16:46:59.763Z,8.45
2023-05-16T16:57:11.494Z,7.75
2023-05-16T17:02:15.860Z,12.88
2023-05-16T17:07:21.646Z,15.52
2023-05-16T17:17:32.661Z,12.32
2023-05-16T17:22:38.213Z,13.90
2023-05-16T17:27:43.297Z,14.18
2023-05-16T17:32:47.723Z,20.80
2023-05-16T17:37:53.060Z,14.80
2023-05-16T17:42:57.220Z,17.27
2023-05-16T17:48:01.213Z,14.15
2023-05-16T17:53:07.830Z,10.10
2023-05-16T17:58:11.915Z,11.18
2023-05-16T18:03:16.950Z,10.23
2023-05-16T18:08:22.350Z,10.95
2023-05-16T18:13:26.403Z,11.73
2023-05-16T18:18:30.693Z,11.60
2023-05-16T18:23:39.505Z,12.55
2023-05-16T18:28:43.580Z,14.90
2023-05-16T18:33:47.787Z,14.68
2023-05-16T18:38:53.370Z,14.30
2023-05-16T18:43:57.406Z,14.90
2023-05-16T18:49:01.929Z,18.52
2023-05-16T18:54:07.524Z,15.25
2023-05-16T19:04:15.434Z,15.57
2023-05-16T19:09:20.827Z,15.32
2023-05-16T19:14:27.006Z,15.50
2023-05-16T19:19:31.376Z,14.80
2023-05-16T19:24:36.930Z,13.73
2023-05-16T19:29:40.905Z,15.40
2023-05-16T19:34:45.057Z,14.60
2023-05-16T19:39:50.466Z,16.55
2023-05-16T19:44:54.571Z,18.63
2023-05-16T19:49:58.569Z,14.32
2023-05-16T19:55:04.739Z,14.25
2023-05-16T20:00:09.933Z,14.18
2023-05-16T20:05:19.978Z,17.58
2023-05-16T20:10:25.913Z,21.27
2023-05-16T20:20:39.171Z,19.10
2023-05-16T20:25:44.999Z,18.05
2023-05-16T20:30:49.302Z,15.65
2023-05-16T20:35:53.603Z,12.13
2023-05-16T20:40:59.339Z,14.45
2023-05-16T20:46:10.085Z,14.75
2023-05-16T20:51:14.243Z,12.40
2023-05-16T20:56:22.484Z,13.30
2023-05-16T21:01:28.002Z,18.77
2023-05-16T21:06:34.976Z,13.10
2023-05-16T21:11:40.499Z,13.50
2023-05-16T21:16:44.805Z,17.55
2023-05-16T21:21:51.198Z,15.73
2023-05-16T21:27:17.759Z,18.30
2023-05-16T21:32:23.403Z,28.52
2023-05-16T21:37:28.113Z,23.17
2023-05-16T21:42:47.953Z,24.40
2023-05-16T21:47:57.362Z,19.88
2023-05-16T21:53:01.600Z,20.05
2023-05-16T21:58:07.336Z,19.70
2023-05-16T22:03:11.951Z,22.50
2023-05-16T22:08:16.407Z,16.23
2023-05-16T22:13:22.225Z,16.48
2023-05-16T22:18:26.454Z,20.05
2023-05-16T22:23:31.181Z,17.52
2023-05-16T22:28:36.952Z,17.50
2023-05-16T22:33:41.179Z,16.02
2023-05-16T22:38:45.864Z,12.68
2023-05-16T22:43:51.967Z,23.88
2023-05-16T22:48:57.818Z,22.00
2023-05-16T22:54:02.075Z,19.83
2023-05-16T22:59:08.020Z,18.77
2023-05-16T23:09:16.206Z,19.02
2023-05-16T23:14:21.997Z,27.27
2023-05-16T23:19:26.291Z,20.10
2023-05-16T23:24:31.013Z,21.17
2023-05-16T23:29:36.728Z,20.55
2023-05-16T23:39:46.185Z,13.45
2023-05-16T23:44:51.869Z,14.80
2023-05-16T23:49:56.207Z,13.77
2023-05-16T23:55:00.360Z,10.43
